*** The Vicarage Weather Feed ***

Nearby METAR Reports


 

CYOO - Oshawa, Municipal Airport, Ontario, Canada
Distance from station: PnZd 3.2km
Aktualizacja: 19/11/2019 11:00
Pochmurno
Pochmurno
 Wiatr z varies
Wiatr: varies 4 km/h
Temperatura: 2°C
Punkt Rosy: -1°C
Wilgotność: 81%
Ciśnienie: 1010.2 hPa
Clouds: Pochmurno
Visibility: 14 km
Cloud details: Pochmurno 549 m
2019/11/19 16:00 CYOO 191600Z AUTO VRB02KT 9SM OVC018 02/M01 A2983 RMK SLP109
CYKZ - Toronto, Buttonville, Municipal Airport, Ontario, Canada
Distance from station: Zd 39.75km
Aktualizacja: 03/01/2019 04:00
NOT Current
Częściowe zachmurzenie
Częściowe zachmurzenie
 Wiatr z ZdPdZa
Wiatr: ZdPdZa 7 km/h
Temperatura: -3°C
Wind Chill: -6°C
Punkt Rosy: -5°C
Wilgotność: 86%
Ciśnienie: 1010.8 hPa
Clouds: Częściowe zachmurzenie
Visibility: 24 km
Cloud details: Częściowe zachmurzenie 1219 m
2019/01/03 09:00 CYKZ 030900Z 25004KT 15SM SCT040 M03/M05 A2985 RMK SC3 LAST STFD OBS FAREWELL SLP118
 
CXTO - Toronto City, Buttonville, Ontario, Canada
Distance from station: ZdPdZa 49km
Aktualizacja: 19/11/2019 11:00

 
Temperatura: 3°C
Punkt Rosy: 0°C
Wilgotność: 81%
2019/11/19 16:00 CXTO 191600Z AUTO 03/M00 RMK AO1 SLP109 T00311001 51008
CYTZ - Toronto City, Island Airport, Ontario, Canada
Distance from station: PdZd 51.7km
Aktualizacja: 19/11/2019 11:00
Pochmurno
Pochmurno
 Wiatr z Ws
Wiatr: Ws 6 km/h
Temperatura: 3°C
Punkt Rosy: 0°C
Wilgotność: 81%
Ciśnienie: 1010.5 hPa
Clouds: Pochmurno
Visibility: 14 km
Cloud details: Pochmurno 579 m
2019/11/19 16:00 CYTZ 191600Z AUTO 09003KT 9SM OVC019 03/00 A2984 RMK SLP108
 
CYPQ - Toronto, Peterborough Airport, Ontario, Canada
Distance from station: PnWs 54km
Aktualizacja: 19/11/2019 11:00
Pochmurno
Pochmurno
 Wiatr z Zd
Wiatr: Zd 4 km/h
Temperatura: 1°C
Punkt Rosy: -2°C
Wilgotność: 81%
Ciśnienie: 1010.2 hPa
Clouds: Pochmurno
Visibility: 14 km
Cloud details: Pochmurno 640 m
2019/11/19 16:00 CYPQ 191600Z AUTO 28002KT 9SM OVC021 01/M02 A2983 RMK SLP109
CWNC - Cobourg, (mars), Ontario, Canada
Distance from station: Ws 57km
Aktualizacja: 19/11/2019 11:00

 Wiatr z Pd
Wiatr: Pd 4 km/h
Temperatura: 2°C
Punkt Rosy: -4°C
Wilgotność: 65%
2019/11/19 16:00 CWNC 191600Z AUTO 18002KT 02/M04 RMK AO1 SLP110 T00211038 53010
 
CYYZ - Toronto, Lester Pearson Airport, Ontario, Canada
Distance from station: Zd 65.5km
Aktualizacja: 19/11/2019 11:00
Mist, Pochmurno
Mist, Pochmurno
 Wiatr z PdWs
Wiatr: PdWs 6 km/h
Temperatura: 2°C
Punkt Rosy: 0°C
Wilgotność: 87%
Ciśnienie: 1009.8 hPa
Podsumowanie: Mist
Clouds: Pochmurno
Visibility: 10 km
Cloud details: Częściowe zachmurzenie 274 m
Pochmurno 488 m
2019/11/19 16:00 CYYZ 191600Z 13003KT 090V160 6SM BR SCT009 OVC016 02/00 A2982 RMK SF3SC5 SLP106
CWGL - Lagoon City, Ontario, Canada
Distance from station: PnPnZd 74km
Aktualizacja: 19/11/2019 11:00

 Wiatr z calm
Wiatr: Cisza
Temperatura: 1°C
Punkt Rosy: -1°C
Wilgotność: 87%
2019/11/19 16:00 CWGL 191600Z AUTO 00000KT 01/M01 RMK AO1 SLP088 T00061013 52007
 
CWWZ - Port Weller Airport, Ontario, Canada
Distance from station: PdPdZd 77km
Aktualizacja: 19/11/2019 11:00

 Wiatr z WsPdWs
Wiatr: WsPdWs 6 km/h
Temperatura: 4°C
Punkt Rosy: 1°C
Wilgotność: 81%
2019/11/19 16:00 CWWZ 191600Z AUTO 11003KT 04/01 RMK AO1 SLP105 T00440005 52009
CYSN - St.Catharines Niagara Airport, Ontario, Canada
Distance from station: PdPdZd 81km
Aktualizacja: 19/11/2019 11:00
Pochmurno
Pochmurno
 Wiatr z WsPnWs
Wiatr: WsPnWs 4 km/h
Temperatura: 4°C
Punkt Rosy: 1°C
Wilgotność: 81%
Ciśnienie: 1009.8 hPa
Clouds: Pochmurno
Visibility: 24 km
Cloud details: Pochmurno 1006 m
2019/11/19 16:00 CYSN 191600Z 06002KT 15SM OVC033 04/01 A2982 RMK SC8 SLP103
This data is offered only as a general guide to local weather conditions. It should not be relied upon in lieu of officially disseminated weather information for determining possible risk to persons or property. This site, including all information contained therein, is made available as is without warranties of any kind, either express or implied. The Vicarage Weather Feed© includes links to other sites for user convenience only. The content of any linked third-party site is not controlled by The Vicarage Weather Feed©. Access to any third-party website through The Vicarage Weather Feed©, regardless of whether or not the third-party site is a linked site, is entirely at the users own risk. Externally sourced content or material is excluded from The Vicarage Weather Feed© copyright and is the copyright and property of the respective provider. Skywarn® and the Skywarn® logo are registered trademarks of the National Oceanic and Atmospheric Administration, used with permission.